Airfield :
LOGIN :

Register | Disclaimer

   EN    FR    IT 

 










Legend :    VFR   Marginal VFR   IFR   Intensive IFR   Very Intensive IFR
Visi :
Ceiling :
>= 8 km
>= 3000ft
5 to 8 km
1000 to 3000 ft
1500m to 5 km
500 to 1000 ft
800 to 1500m
200 to 500 ft
< 800m
< 200 ft
Symbols :   Thunderstorms  Fog  Heavy snow  Heavy precipitations  Wind > 20 kt
SIGMETs :     Misc.  Thunderstorms  Icing  Turbulence  Mountain Waves  Volcanic Ashes






- Airport Elevation : 502 ft
- IATA code : ORK


EICK - Cork

CURRENT METAR :
  • 212200Z 34005KT 9999 BKN006 BKN018 07/06 Q1041 BECMG 6000

EXPIRED METARs :
  • 212130Z 34007KT 9999 BKN006 BKN018 07/06 Q1041 BECMG 6000
  • 212100Z 33007KT 9999 FEW012 BKN026 07/06 Q1041 NOSIG
  • 212030Z 34008KT 9999 FEW012 BKN023 07/06 Q1041 NOSIG
  • 212000Z 34006KT 9999 FEW012 BKN020 07/06 Q1041 NOSIG
  • 211930Z 35005KT 9999 BKN020 07/05 Q1041 NOSIG

TAF TAF EICK
Valid from the 21 at 18:00 until the 22 at 18:00 UTC


211700Z 2118/2218 VRB03KT 9999 FEW006 BKN015
PROB40
TEMPO 2118/2120 3000 -DZ BR BKN003
BECMG 2120/2122 6000 SCT003 BKN006
TEMPO 2120/2212 3000 -DZ BR BKN003
PROB40
TEMPO 2121/2209 0500 FG BKN001
BECMG 2206/2209 35006KT
BECMG 2212/2214 08006KT 9999 SCT003 BKN015
PROB40
TEMPO 2212/2218 3000 -DZ BR BKN003



MET'MAP, your aeronautical weather chart ! - Copyright ORBIFLY December 2007 - Disclaimer

ORBIFLY MET'MAP TEAM :

Programming & Development : Alexandra Zaïnal
Concept & original design : Baudouin d'Aumeries
Assistance for programming : Marc-Olivier Méhu
Technical & hardware support : Manuel Goepfert

Contact : metmap@orbifly.com




SOURCES & CREDITS :

   NOAA